Time;durP1;ratioP1;P1;durP2;ratioP2;P2;SDS_P1;SDS_P2;PMS_P1;PMS_P2;Temp;Humidity;BMP_temperature;BMP_pressure;BME280_temperature;BME280_humidity;BME280_pressure;Samples;Min_cycle;Max_cycle;Signal;HPM_P1;HPM_P2
2023/11/16 00:01:50;;;;;;;;;;;17.00;90.80;;;;;;5034058;28;19963;-68
2023/11/16 00:04:16;;;;;;;;;;;17.10;91.00;;;;;;5034318;28;19971;-68
2023/11/16 00:06:42;;;;;;;;;;;17.10;90.90;;;;;;5033994;28;19913;-69
2023/11/16 00:09:09;;;;;;;;;;;17.10;91.00;;;;;;5034122;28;19917;-69
2023/11/16 00:11:41;;;;;;;;;;;17.10;90.90;;;;;;5034552;28;19966;-69
2023/11/16 00:14:08;;;;;;;;;;;17.10;90.90;;;;;;5035442;28;19916;-69
2023/11/16 00:16:35;;;;;;;;;;;17.10;91.00;;;;;;5034554;28;20007;-69
2023/11/16 00:19:02;;;;;;;;;;;17.00;90.70;;;;;;5034637;28;19981;-69
2023/11/16 00:21:27;;;;;;;;;;;17.10;90.80;;;;;;5052630;28;19996;-69
2023/11/16 00:23:53;;;;;;;;;;;17.00;90.80;;;;;;5052244;28;19908;-69
2023/11/16 00:26:19;;;;;;;;;;;17.20;91.00;;;;;;5052228;28;19909;-69
2023/11/16 00:28:45;;;;;;;;;;;17.10;90.90;;;;;;5051826;28;20417;-69
2023/11/16 00:31:15;;;;;;;;;;;17.10;90.90;;;;;;5051948;28;19948;-69
2023/11/16 00:33:44;;;;;;;;;;;17.10;90.80;;;;;;5052177;28;19909;-69
2023/11/16 00:36:11;;;;;;;;;;;16.40;90.70;;;;;;5051921;28;20005;-69
2023/11/16 00:38:38;;;;;;;;;;;17.10;90.10;;;;;;5051698;28;20015;-69
2023/11/16 00:41:05;;;;;;;;;;;17.10;90.90;;;;;;5051820;28;20271;-70
2023/11/16 00:43:31;;;;;;;;;;;17.00;90.40;;;;;;5052027;28;20000;-69
2023/11/16 00:45:59;;;;;;;;;;;17.10;90.80;;;;;;5051711;28;19958;-69
2023/11/16 00:48:25;;;;;;;;;;;17.10;90.80;;;;;;5051967;28;20317;-69
2023/11/16 00:50:51;;;;;;;;;;;16.70;90.70;;;;;;5052151;28;19909;-70
2023/11/16 00:53:16;;;;;;;;;;;17.10;90.90;;;;;;5051798;28;19916;-69
2023/11/16 00:55:42;;;;;;;;;;;17.10;90.90;;;;;;5051612;28;20371;-69
2023/11/16 00:58:09;;;;;;;;;;;17.10;90.90;;;;;;5051582;28;19912;-69
2023/11/16 01:00:35;;;;;;;;;;;17.00;90.70;;;;;;5051857;28;19908;-69
2023/11/16 01:03:03;;;;;;;;;;;17.00;90.80;;;;;;5051343;28;19927;-68
2023/11/16 01:05:29;;;;;;;;;;;17.10;90.90;;;;;;5051852;28;19909;-67
2023/11/16 01:07:55;;;;;;;;;;;17.10;90.90;;;;;;5051465;28;20264;-68
2023/11/16 01:10:24;;;;;;;;;;;17.00;91.00;;;;;;5051828;28;19909;-68
2023/11/16 01:12:51;;;;;;;;;;;17.10;91.00;;;;;;5054331;28;19908;-68
2023/11/16 01:15:18;;;;;;;;;;;17.10;91.00;;;;;;5055551;28;19909;-68
2023/11/16 01:17:45;;;;;;;;;;;17.10;91.00;;;;;;5056016;28;19909;-68
2023/11/16 01:20:18;;;;;;;;;;;17.10;91.00;;;;;;5055424;28;19923;-68
2023/11/16 01:23:10;;;;;;;;;;;17.10;91.30;;;;;;5055471;28;20345;-68
2023/11/16 01:25:40;;;;;;;;;;;17.00;90.70;;;;;;5055333;28;19928;-68
2023/11/16 01:28:06;;;;;;;;;;;17.10;90.90;;;;;;5055146;28;20024;-68
2023/11/16 01:30:32;;;;;;;;;;;17.10;91.10;;;;;;5055206;28;20390;-68
2023/11/16 01:32:58;;;;;;;;;;;17.10;91.10;;;;;;5054989;28;20003;-68
2023/11/16 01:35:25;;;;;;;;;;;17.10;91.10;;;;;;5055154;28;19989;-68
2023/11/16 01:37:56;;;;;;;;;;;17.00;90.80;;;;;;5055071;28;19916;-68
2023/11/16 01:40:24;;;;;;;;;;;17.00;91.20;;;;;;5055411;28;20326;-68
2023/11/16 01:42:49;;;;;;;;;;;17.50;91.00;;;;;;5054721;28;19962;-68
2023/11/16 01:45:31;;;;;;;;;;;17.10;90.90;;;;;;5054721;28;19908;-68
2023/11/16 01:48:04;;;;;;;;;;;17.10;87.10;;;;;;5055114;28;19913;-68
2023/11/16 01:50:30;;;;;;;;;;;17.00;86.80;;;;;;5054879;28;19967;-68
2023/11/16 01:53:04;;;;;;;;;;;17.10;91.10;;;;;;5054745;28;19909;-68
2023/11/16 01:55:34;;;;;;;;;;;17.00;90.90;;;;;;5054812;28;19909;-68
2023/11/16 01:58:05;;;;;;;;;;;17.10;87.00;;;;;;5054325;28;19908;-68
2023/11/16 02:00:32;;;;;;;;;;;17.00;90.80;;;;;;5054688;28;20227;-68
2023/11/16 02:03:00;;;;;;;;;;;17.00;90.70;;;;;;5054277;28;19928;-68
2023/11/16 02:05:26;;;;;;;;;;;17.20;91.00;;;;;;5054397;28;20403;-68
2023/11/16 02:07:52;;;;;;;;;;;17.10;90.90;;;;;;5054530;28;19916;-68
2023/11/16 02:10:18;;;;;;;;;;;17.10;91.00;;;;;;5054174;28;20267;-68
2023/11/16 02:12:54;;;;;;;;;;;17.00;90.90;;;;;;5054204;28;19908;-68
2023/11/16 02:15:20;;;;;;;;;;;17.00;86.90;;;;;;5054626;28;20391;-68
2023/11/16 02:17:46;;;;;;;;;;;17.10;90.90;;;;;;5054409;28;19939;-68
2023/11/16 02:20:11;;;;;;;;;;;17.00;90.80;;;;;;5054281;28;20404;-68
2023/11/16 02:22:38;;;;;;;;;;;17.10;90.90;;;;;;5054301;28;19971;-68
2023/11/16 02:25:05;;;;;;;;;;;17.10;90.90;;;;;;5053865;28;19909;-68
2023/11/16 02:27:31;;;;;;;;;;;17.10;90.70;;;;;;5054269;28;19955;-68
2023/11/16 02:29:58;;;;;;;;;;;17.00;91.00;;;;;;5053827;28;20464;-68
2023/11/16 02:32:25;;;;;;;;;;;17.10;90.90;;;;;;5053942;28;19908;-68
2023/11/16 02:34:52;;;;;;;;;;;17.10;90.90;;;;;;5054014;28;19988;-68
2023/11/16 02:37:18;;;;;;;;;;;17.10;91.10;;;;;;5053741;28;19917;-68
2023/11/16 02:39:44;;;;;;;;;;;17.00;90.90;;;;;;5053706;28;19917;-68
2023/11/16 02:42:12;;;;;;;;;;;17.00;90.90;;;;;;5053622;28;19931;-68
2023/11/16 02:44:39;;;;;;;;;;;17.10;91.00;;;;;;5054067;28;20395;-68
2023/11/16 02:47:06;;;;;;;;;;;16.80;91.00;;;;;;5053508;28;19931;-68
2023/11/16 02:49:33;;;;;;;;;;;16.80;90.80;;;;;;5036073;28;19913;-68
2023/11/16 02:51:59;;;;;;;;;;;17.00;91.00;;;;;;5053861;28;19909;-68
2023/11/16 02:54:25;;;;;;;;;;;17.10;91.20;;;;;;5053662;28;19916;-68
2023/11/16 02:56:50;;;;;;;;;;;17.00;91.20;;;;;;5053461;28;19909;-68
2023/11/16 02:59:16;;;;;;;;;;;17.10;91.30;;;;;;5053221;28;19925;-68
2023/11/16 03:01:42;;;;;;;;;;;17.00;91.00;;;;;;5053168;28;20006;-68
2023/11/16 03:04:08;;;;;;;;;;;17.00;91.20;;;;;;5053050;28;19921;-68
2023/11/16 03:06:34;;;;;;;;;;;17.00;91.30;;;;;;5053204;28;20000;-68
2023/11/16 03:09:00;;;;;;;;;;;17.00;91.20;;;;;;5053403;28;19952;-68
2023/11/16 03:11:25;;;;;;;;;;;16.90;91.30;;;;;;5053627;28;19931;-69
2023/11/16 03:13:52;;;;;;;;;;;17.00;91.30;;;;;;5053100;28;19909;-69
2023/11/16 03:16:17;;;;;;;;;;;17.00;91.30;;;;;;5052987;28;19909;-70
2023/11/16 03:18:43;;;;;;;;;;;17.00;91.30;;;;;;5052879;28;19917;-69
2023/11/16 03:21:09;;;;;;;;;;;17.00;91.40;;;;;;5052959;28;19909;-69
2023/11/16 03:23:36;;;;;;;;;;;17.00;89.80;;;;;;5052452;28;20235;-70
2023/11/16 03:26:04;;;;;;;;;;;17.00;91.30;;;;;;5053171;28;19909;-70
2023/11/16 03:28:30;;;;;;;;;;;17.00;91.10;;;;;;5052921;28;19960;-70
2023/11/16 03:30:57;;;;;;;;;;;17.00;91.30;;;;;;5052793;28;20331;-69
2023/11/16 03:33:23;;;;;;;;;;;17.00;91.30;;;;;;5052885;28;19908;-70
2023/11/16 03:35:49;;;;;;;;;;;17.00;91.20;;;;;;5052312;28;20288;-69
2023/11/16 03:38:15;;;;;;;;;;;17.00;91.40;;;;;;5052576;28;19940;-69
2023/11/16 03:40:42;;;;;;;;;;;17.10;91.40;;;;;;5053134;28;19915;-69
2023/11/16 03:43:09;;;;;;;;;;;17.10;91.30;;;;;;5052898;28;19909;-69
2023/11/16 03:45:35;;;;;;;;;;;17.00;91.30;;;;;;5052460;28;19916;-69
2023/11/16 03:48:02;;;;;;;;;;;17.00;91.40;;;;;;5052883;28;19909;-69
2023/11/16 03:50:29;;;;;;;;;;;17.10;91.40;;;;;;5052431;28;19924;-69
2023/11/16 03:52:55;;;;;;;;;;;17.10;91.40;;;;;;5052494;28;19909;-70
2023/11/16 03:55:21;;;;;;;;;;;17.00;91.40;;;;;;5052625;28;19909;-69
2023/11/16 03:57:47;;;;;;;;;;;17.10;91.50;;;;;;5052315;28;19916;-70
2023/11/16 04:00:13;;;;;;;;;;;17.00;91.40;;;;;;5052467;28;19923;-70
2023/11/16 04:02:39;;;;;;;;;;;17.00;91.20;;;;;;5052172;28;20346;-69
2023/11/16 04:05:06;;;;;;;;;;;17.10;91.40;;;;;;5052545;28;19917;-70
2023/11/16 04:07:34;;;;;;;;;;;17.00;90.90;;;;;;5052236;28;19908;-70
2023/11/16 04:10:00;;;;;;;;;;;17.00;91.50;;;;;;5052976;28;20008;-70
2023/11/16 04:12:26;;;;;;;;;;;17.00;91.40;;;;;;5052181;28;20399;-69
2023/11/16 04:14:52;;;;;;;;;;;17.00;91.40;;;;;;5052113;28;19916;-69
2023/11/16 04:17:21;;;;;;;;;;;17.00;91.40;;;;;;5052170;28;19916;-70
2023/11/16 04:19:47;;;;;;;;;;;16.90;91.40;;;;;;5052313;28;19927;-69
2023/11/16 04:22:16;;;;;;;;;;;16.90;91.40;;;;;;5052398;28;20325;-69
2023/11/16 04:24:42;;;;;;;;;;;17.00;88.00;;;;;;5052337;28;19948;-69
2023/11/16 04:27:08;;;;;;;;;;;16.90;91.20;;;;;;5052384;28;20351;-70
2023/11/16 04:29:34;;;;;;;;;;;17.00;91.40;;;;;;5052167;28;19916;-70
2023/11/16 04:32:01;;;;;;;;;;;17.00;91.50;;;;;;5052342;28;20205;-70
2023/11/16 04:34:27;;;;;;;;;;;17.00;91.40;;;;;;5052197;28;19913;-69
2023/11/16 04:36:53;;;;;;;;;;;17.00;91.40;;;;;;5052432;28;20375;-70
2023/11/16 04:39:19;;;;;;;;;;;16.90;91.20;;;;;;5052140;28;20393;-69
2023/11/16 04:41:45;;;;;;;;;;;17.00;91.50;;;;;;5051835;28;20009;-69
2023/11/16 04:44:11;;;;;;;;;;;17.00;91.40;;;;;;5051808;28;19916;-69
2023/11/16 04:46:45;;;;;;;;;;;17.00;91.50;;;;;;5052498;28;19909;-69
2023/11/16 04:49:10;;;;;;;;;;;17.00;91.50;;;;;;5055997;28;19916;-70
2023/11/16 04:51:36;;;;;;;;;;;16.90;91.30;;;;;;5055740;28;19917;-69
2023/11/16 04:54:01;;;;;;;;;;;17.00;91.50;;;;;;5055711;28;19909;-70
2023/11/16 04:56:27;;;;;;;;;;;16.90;91.30;;;;;;5055936;28;20012;-69
2023/11/16 04:58:53;;;;;;;;;;;16.90;91.50;;;;;;5055495;28;19917;-69
2023/11/16 05:01:19;;;;;;;;;;;17.00;91.40;;;;;;5055820;28;19967;-70
2023/11/16 05:03:45;;;;;;;;;;;17.00;91.60;;;;;;5055267;28;19921;-70
2023/11/16 05:06:12;;;;;;;;;;;17.00;91.40;;;;;;5055936;28;19909;-69
2023/11/16 05:08:40;;;;;;;;;;;17.00;91.50;;;;;;5055599;28;19915;-69
2023/11/16 05:11:06;;;;;;;;;;;17.00;91.20;;;;;;5055627;28;19916;-69
2023/11/16 05:13:32;;;;;;;;;;;17.00;91.40;;;;;;5055647;28;20312;-70
2023/11/16 05:15:58;;;;;;;;;;;17.20;91.40;;;;;;5055268;28;19999;-69
2023/11/16 05:18:24;;;;;;;;;;;17.10;91.40;;;;;;5055488;28;19973;-70
2023/11/16 05:20:50;;;;;;;;;;;17.10;91.50;;;;;;5055101;28;19913;-69
2023/11/16 05:23:19;;;;;;;;;;;17.10;91.40;;;;;;5055053;28;19920;-69
2023/11/16 05:25:45;;;;;;;;;;;17.00;89.60;;;;;;5055252;28;19916;-69
2023/11/16 05:28:11;;;;;;;;;;;17.10;91.40;;;;;;5055009;28;19909;-70
2023/11/16 05:30:37;;;;;;;;;;;17.00;91.20;;;;;;5055009;28;19920;-69
2023/11/16 05:33:03;;;;;;;;;;;17.30;91.50;;;;;;5054883;28;19909;-69
2023/11/16 05:35:29;;;;;;;;;;;17.10;91.40;;;;;;5055711;28;19908;-70
2023/11/16 05:37:56;;;;;;;;;;;17.00;91.30;;;;;;5054756;28;20385;-69
2023/11/16 05:40:21;;;;;;;;;;;17.10;91.50;;;;;;5054810;28;20007;-70
2023/11/16 05:42:47;;;;;;;;;;;17.10;91.40;;;;;;5055015;28;19913;-69
2023/11/16 05:45:14;;;;;;;;;;;17.10;91.60;;;;;;5055092;28;19908;-69
2023/11/16 05:47:40;;;;;;;;;;;17.10;91.50;;;;;;5055147;28;19947;-70
2023/11/16 05:50:06;;;;;;;;;;;17.10;91.80;;;;;;5054924;28;20240;-69
2023/11/16 05:52:32;;;;;;;;;;;17.10;91.00;;;;;;5054683;28;19916;-69
2023/11/16 05:54:58;;;;;;;;;;;17.10;91.50;;;;;;5054711;28;19908;-69
2023/11/16 05:57:25;;;;;;;;;;;17.10;91.50;;;;;;5054420;28;19909;-70
2023/11/16 05:59:51;;;;;;;;;;;17.10;91.40;;;;;;5054325;28;19917;-70
2023/11/16 06:02:17;;;;;;;;;;;17.10;91.20;;;;;;5054781;28;19920;-70
2023/11/16 06:04:42;;;;;;;;;;;17.10;91.40;;;;;;5054558;28;20283;-69
2023/11/16 06:07:08;;;;;;;;;;;17.00;91.30;;;;;;5054319;28;19909;-69
2023/11/16 06:09:33;;;;;;;;;;;17.20;91.50;;;;;;5054298;28;19920;-69
2023/11/16 06:12:01;;;;;;;;;;;17.20;91.40;;;;;;5054574;28;19913;-69
2023/11/16 06:14:30;;;;;;;;;;;17.10;91.50;;;;;;5054270;28;20298;-70
2023/11/16 06:16:57;;;;;;;;;;;17.20;91.50;;;;;;5054170;28;19909;-70
2023/11/16 06:19:22;;;;;;;;;;;17.20;91.70;;;;;;5054335;28;20019;-69
2023/11/16 06:21:48;;;;;;;;;;;17.10;91.40;;;;;;5054075;28;20390;-69
2023/11/16 06:24:14;;;;;;;;;;;16.70;91.50;;;;;;5053972;28;19915;-69
2023/11/16 06:26:39;;;;;;;;;;;17.10;91.50;;;;;;5054321;28;19974;-70
2023/11/16 06:29:06;;;;;;;;;;;17.00;91.50;;;;;;5054265;28;19910;-69
2023/11/16 06:31:31;;;;;;;;;;;17.20;91.50;;;;;;5054331;28;20008;-70
2023/11/16 06:33:57;;;;;;;;;;;17.10;91.50;;;;;;5053863;28;20010;-70
2023/11/16 06:36:24;;;;;;;;;;;17.30;91.40;;;;;;5054127;28;19908;-70
2023/11/16 06:38:50;;;;;;;;;;;17.10;91.80;;;;;;5054004;28;19917;-70
2023/11/16 06:41:16;;;;;;;;;;;17.20;91.60;;;;;;5053647;28;19909;-70
2023/11/16 06:43:42;;;;;;;;;;;17.10;91.50;;;;;;5053968;28;20243;-70
2023/11/16 06:46:08;;;;;;;;;;;17.10;91.50;;;;;;5053537;28;20399;-70
2023/11/16 06:48:34;;;;;;;;;;;17.10;91.40;;;;;;5053869;28;19909;-69
2023/11/16 06:51:00;;;;;;;;;;;17.10;91.60;;;;;;5053507;28;20273;-70
2023/11/16 06:53:26;;;;;;;;;;;17.10;91.50;;;;;;5053698;28;19913;-70
2023/11/16 06:55:52;;;;;;;;;;;17.20;91.70;;;;;;5057957;28;19916;-70
2023/11/16 06:58:22;;;;;;;;;;;17.10;91.20;;;;;;5055169;28;19916;-70
2023/11/16 07:00:51;;;;;;;;;;;17.20;91.50;;;;;;5053681;28;20011;-73
2023/11/16 07:03:17;;;;;;;;;;;17.10;91.40;;;;;;5053295;28;19924;-70
2023/11/16 07:05:43;;;;;;;;;;;17.10;91.70;;;;;;5053524;28;19916;-70
2023/11/16 07:08:09;;;;;;;;;;;17.10;91.70;;;;;;5053437;28;19908;-69
2023/11/16 07:10:36;;;;;;;;;;;17.10;91.70;;;;;;5052651;28;19912;-71
2023/11/16 07:13:03;;;;;;;;;;;17.10;91.70;;;;;;5053394;28;19908;-69
2023/11/16 07:15:32;;;;;;;;;;;17.20;91.80;;;;;;5053280;28;19916;-70
2023/11/16 07:17:58;;;;;;;;;;;17.30;91.70;;;;;;5053321;28;19959;-69
2023/11/16 07:20:25;;;;;;;;;;;17.10;91.80;;;;;;5053105;28;19962;-70
2023/11/16 07:22:51;;;;;;;;;;;17.10;91.60;;;;;;5052892;28;19916;-69
2023/11/16 07:25:20;;;;;;;;;;;17.20;91.50;;;;;;5052771;28;19912;-70
2023/11/16 07:27:47;;;;;;;;;;;17.10;91.60;;;;;;5052669;28;19985;-70
2023/11/16 07:30:13;;;;;;;;;;;17.10;91.60;;;;;;5052719;28;19915;-70
2023/11/16 07:32:40;;;;;;;;;;;17.20;92.00;;;;;;5052686;28;20351;-71
2023/11/16 07:35:15;;;;;;;;;;;17.10;91.70;;;;;;5052667;28;19913;-70
2023/11/16 07:37:44;;;;;;;;;;;17.10;89.00;;;;;;5053041;28;19916;-71
2023/11/16 07:40:15;;;;;;;;;;;17.10;91.80;;;;;;5052482;28;19924;-70
2023/11/16 07:42:41;;;;;;;;;;;17.20;89.80;;;;;;5052937;28;20362;-70
2023/11/16 07:45:12;;;;;;;;;;;17.30;91.90;;;;;;5053291;28;20271;-72
2023/11/16 07:47:39;;;;;;;;;;;17.40;91.30;;;;;;5059706;28;19908;-70
2023/11/16 07:50:05;;;;;;;;;;;17.20;91.90;;;;;;5052763;28;19999;-73
2023/11/16 07:52:37;;;;;;;;;;;17.20;91.70;;;;;;5052341;28;20355;-71
2023/11/16 07:55:03;;;;;;;;;;;17.00;91.60;;;;;;5052788;28;20000;-73
2023/11/16 07:57:33;;;;;;;;;;;17.20;91.50;;;;;;5052707;28;20247;-70
2023/11/16 08:00:07;;;;;;;;;;;17.20;91.80;;;;;;5052321;28;19916;-71
2023/11/16 08:03:41;;;;;;;;;;;17.10;91.60;;;;;;5052041;28;19960;-70
2023/11/16 08:05:18;;;;;;;;;;;17.20;91.80;;;;;;5052071;28;19916;-70
2023/11/16 08:07:48;;;;;;;;;;;17.10;91.80;;;;;;5052199;28;19983;-70
2023/11/16 08:10:15;;;;;;;;;;;17.10;91.80;;;;;;5052217;28;20363;-70
2023/11/16 08:12:41;;;;;;;;;;;17.10;91.80;;;;;;5052307;28;19913;-69
2023/11/16 08:15:07;;;;;;;;;;;17.10;91.80;;;;;;5052897;28;19963;-69
2023/11/16 08:17:34;;;;;;;;;;;17.20;91.40;;;;;;5052340;28;19988;-70
2023/11/16 08:20:03;;;;;;;;;;;17.20;91.80;;;;;;5052252;28;19924;-69
2023/11/16 08:22:29;;;;;;;;;;;17.10;91.80;;;;;;5058801;28;19919;-68
2023/11/16 08:24:54;;;;;;;;;;;17.10;91.80;;;;;;5058709;28;19909;-70
2023/11/16 08:27:20;;;;;;;;;;;17.10;91.80;;;;;;5058701;28;20014;-70
2023/11/16 08:29:46;;;;;;;;;;;17.20;91.70;;;;;;5058714;28;19955;-70
2023/11/16 08:32:11;;;;;;;;;;;17.10;91.80;;;;;;5058869;28;19935;-70
2023/11/16 08:34:37;;;;;;;;;;;17.20;91.70;;;;;;5058859;28;19948;-74
2023/11/16 08:37:02;;;;;;;;;;;17.10;91.80;;;;;;5058662;28;19909;-71
2023/11/16 08:39:28;;;;;;;;;;;17.20;91.30;;;;;;5058737;28;20270;-71
2023/11/16 08:41:58;;;;;;;;;;;17.10;91.70;;;;;;5059231;28;19916;-71
2023/11/16 08:44:25;;;;;;;;;;;17.10;91.60;;;;;;5058813;28;19913;-71
2023/11/16 08:46:56;;;;;;;;;;;17.20;91.70;;;;;;5058799;28;20003;-71
2023/11/16 08:49:23;;;;;;;;;;;17.20;91.80;;;;;;5058836;28;19909;-70
2023/11/16 08:51:58;;;;;;;;;;;17.20;91.70;;;;;;5058716;28;19915;-70
2023/11/16 08:54:24;;;;;;;;;;;17.20;91.80;;;;;;5065299;28;19955;-70
2023/11/16 08:56:50;;;;;;;;;;;17.20;91.80;;;;;;5058386;28;19909;-70
2023/11/16 08:59:17;;;;;;;;;;;17.20;91.60;;;;;;5058624;28;19917;-71
2023/11/16 09:01:43;;;;;;;;;;;17.20;91.70;;;;;;5059096;28;20332;-70
2023/11/16 09:04:13;;;;;;;;;;;17.20;91.70;;;;;;5058239;28;19959;-70
2023/11/16 09:06:39;;;;;;;;;;;17.20;89.70;;;;;;5058576;28;19909;-70
2023/11/16 09:09:35;;;;;;;;;;;17.10;91.40;;;;;;5058367;28;19944;-70
2023/11/16 09:11:57;;;;;;;;;;;17.20;89.60;;;;;;5058147;28;19908;-71
2023/11/16 09:14:22;;;;;;;;;;;17.50;91.60;;;;;;5064017;28;19909;-71
2023/11/16 09:16:51;;;;;;;;;;;17.30;91.70;;;;;;5058516;28;20359;-71
2023/11/16 09:19:17;;;;;;;;;;;17.30;91.70;;;;;;5058411;28;19928;-72
2023/11/16 09:21:45;;;;;;;;;;;17.20;91.70;;;;;;5058170;28;19908;-70
2023/11/16 09:24:11;;;;;;;;;;;17.20;91.60;;;;;;5058404;28;19909;-71
2023/11/16 09:26:37;;;;;;;;;;;17.20;91.60;;;;;;5058245;28;20360;-70
2023/11/16 09:29:06;;;;;;;;;;;17.10;91.60;;;;;;5058940;28;19909;-78
2023/11/16 09:31:32;;;;;;;;;;;17.10;91.40;;;;;;5058205;28;19920;-72
2023/11/16 09:34:00;;;;;;;;;;;17.10;91.60;;;;;;5054256;28;19909;-71
2023/11/16 09:36:27;;;;;;;;;;;17.20;91.60;;;;;;5054869;28;19909;-70
2023/11/16 09:38:54;;;;;;;;;;;17.10;91.60;;;;;;5054827;28;19919;-72
2023/11/16 09:41:26;;;;;;;;;;;17.20;91.50;;;;;;5054915;28;20353;-70
2023/11/16 09:43:54;;;;;;;;;;;17.10;88.60;;;;;;5054816;28;19931;-71
2023/11/16 09:46:23;;;;;;;;;;;17.20;92.00;;;;;;5054948;28;20345;-70
2023/11/16 09:48:53;;;;;;;;;;;17.10;91.50;;;;;;5054541;28;19962;-70
2023/11/16 09:51:19;;;;;;;;;;;17.10;91.70;;;;;;5054460;28;19917;-70
2023/11/16 09:53:46;;;;;;;;;;;17.20;91.70;;;;;;5054484;28;19916;-70
2023/11/16 09:56:14;;;;;;;;;;;17.10;91.60;;;;;;5054764;28;19909;-70
2023/11/16 09:58:46;;;;;;;;;;;17.10;91.60;;;;;;5054425;28;20007;-70
2023/11/16 10:01:14;;;;;;;;;;;17.10;91.40;;;;;;5054278;28;20055;-72
2023/11/16 10:03:41;;;;;;;;;;;17.10;91.40;;;;;;5054187;28;19928;-70
2023/11/16 10:06:09;;;;;;;;;;;17.20;91.60;;;;;;5054720;28;19912;-71
2023/11/16 10:08:38;;;;;;;;;;;17.20;91.00;;;;;;5054465;28;19970;-71
2023/11/16 10:11:05;;;;;;;;;;;17.20;91.80;;;;;;5054054;28;19909;-70
2023/11/16 10:13:31;;;;;;;;;;;17.10;91.80;;;;;;5054285;28;19909;-70
2023/11/16 10:16:03;;;;;;;;;;;17.20;91.70;;;;;;5054411;28;19913;-70
2023/11/16 10:18:29;;;;;;;;;;;17.10;88.40;;;;;;5054117;28;19921;-70
2023/11/16 10:20:54;;;;;;;;;;;17.20;91.60;;;;;;5054147;28;19959;-69
2023/11/16 10:23:23;;;;;;;;;;;17.10;91.60;;;;;;5053926;28;19909;-70
2023/11/16 10:25:48;;;;;;;;;;;17.10;91.60;;;;;;5053824;28;20427;-74
2023/11/16 10:28:19;;;;;;;;;;;17.10;91.60;;;;;;5054000;28;19940;-73
2023/11/16 10:30:48;;;;;;;;;;;17.10;88.80;;;;;;5053967;28;20321;-71
2023/11/16 10:33:23;;;;;;;;;;;17.20;91.80;;;;;;5053679;28;19959;-70
2023/11/16 10:35:51;;;;;;;;;;;17.10;88.30;;;;;;5053737;28;19909;-70
2023/11/16 10:38:19;;;;;;;;;;;17.10;91.70;;;;;;5053879;28;20282;-70
2023/11/16 10:40:47;;;;;;;;;;;17.20;91.80;;;;;;5053953;28;20287;-70
2023/11/16 10:43:20;;;;;;;;;;;17.20;91.70;;;;;;5053890;28;20279;-70
2023/11/16 10:45:47;;;;;;;;;;;17.20;88.90;;;;;;5053368;28;19909;-70
2023/11/16 10:48:13;;;;;;;;;;;17.20;91.70;;;;;;5053772;28;19916;-70
2023/11/16 10:50:42;;;;;;;;;;;17.10;91.70;;;;;;5053415;28;19909;-70
2023/11/16 10:53:12;;;;;;;;;;;17.10;91.70;;;;;;5053400;28;19916;-70
2023/11/16 10:55:40;;;;;;;;;;;17.10;91.90;;;;;;5053411;28;19908;-70
2023/11/16 10:58:06;;;;;;;;;;;17.20;91.60;;;;;;5053342;28;19916;-70
2023/11/16 11:00:35;;;;;;;;;;;17.10;91.80;;;;;;5053148;28;19931;-71
2023/11/16 11:03:01;;;;;;;;;;;17.10;91.40;;;;;;5053178;28;20350;-71
2023/11/16 11:05:30;;;;;;;;;;;17.20;91.80;;;;;;5053400;28;19913;-71
2023/11/16 11:08:00;;;;;;;;;;;17.20;88.60;;;;;;5053407;28;20004;-72
2023/11/16 11:10:31;;;;;;;;;;;17.10;91.30;;;;;;5053118;28;19908;-71
2023/11/16 11:13:03;;;;;;;;;;;17.10;91.60;;;;;;5053147;28;19952;-71
2023/11/16 11:15:34;;;;;;;;;;;17.20;88.80;;;;;;5053371;28;19908;-71
2023/11/16 11:18:00;;;;;;;;;;;17.10;88.50;;;;;;5053339;28;19909;-70
2023/11/16 11:20:45;;;;;;;;;;;17.10;91.60;;;;;;5052788;28;19917;-71
2023/11/16 11:23:18;;;;;;;;;;;17.10;88.40;;;;;;5053269;28;19917;-70
2023/11/16 11:25:44;;;;;;;;;;;17.10;91.80;;;;;;5059677;28;19974;-71
2023/11/16 11:28:11;;;;;;;;;;;17.10;91.70;;;;;;5052845;28;19909;-71
2023/11/16 11:30:47;;;;;;;;;;;17.10;91.70;;;;;;5052744;28;19967;-70
2023/11/16 11:33:14;;;;;;;;;;;17.20;91.70;;;;;;5052818;28;19913;-71
2023/11/16 11:35:49;;;;;;;;;;;17.10;91.70;;;;;;5052731;28;20286;-71
2023/11/16 11:38:18;;;;;;;;;;;16.00;87.90;;;;;;5052474;28;20363;-71
2023/11/16 11:40:46;;;;;;;;;;;17.10;91.40;;;;;;5052620;28;19909;-69
2023/11/16 11:43:19;;;;;;;;;;;17.10;91.70;;;;;;5052507;28;19909;-69
2023/11/16 11:45:51;;;;;;;;;;;17.10;88.90;;;;;;5052483;28;19908;-70
2023/11/16 11:48:18;;;;;;;;;;;17.00;91.30;;;;;;5052459;28;19912;-70
2023/11/16 11:50:44;;;;;;;;;;;17.10;91.70;;;;;;5052469;28;19955;-69
2023/11/16 11:53:16;;;;;;;;;;;17.10;91.60;;;;;;5052672;28;20050;-69
2023/11/16 11:55:45;;;;;;;;;;;17.10;91.80;;;;;;5052251;28;19908;-72
2023/11/16 11:58:11;;;;;;;;;;;17.20;91.80;;;;;;5052347;28;20375;-69
2023/11/16 12:00:47;;;;;;;;;;;17.10;91.70;;;;;;5052113;28;19921;-69
2023/11/16 12:03:12;;;;;;;;;;;17.10;91.50;;;;;;5052048;28;20452;-69
2023/11/16 12:05:38;;;;;;;;;;;17.10;91.80;;;;;;5052250;28;19928;-69
2023/11/16 12:08:03;;;;;;;;;;;17.20;91.80;;;;;;5052388;28;19971;-69
2023/11/16 12:10:30;;;;;;;;;;;17.20;91.50;;;;;;5052460;28;19916;-69
2023/11/16 12:12:57;;;;;;;;;;;17.20;91.80;;;;;;5052346;28;20316;-69
2023/11/16 12:15:23;;;;;;;;;;;17.20;91.90;;;;;;5052272;28;19916;-69
2023/11/16 12:17:49;;;;;;;;;;;17.30;91.80;;;;;;5052025;28;20295;-69
2023/11/16 12:20:15;;;;;;;;;;;17.20;91.90;;;;;;5051937;28;20334;-69
2023/11/16 12:22:41;;;;;;;;;;;17.20;91.80;;;;;;5051900;28;19909;-69
2023/11/16 12:25:11;;;;;;;;;;;17.20;92.20;;;;;;5051906;28;19912;-69
2023/11/16 12:27:41;;;;;;;;;;;17.20;91.50;;;;;;5052170;28;19912;-69
2023/11/16 12:30:07;;;;;;;;;;;17.20;91.90;;;;;;5051744;28;19917;-69
2023/11/16 12:32:33;;;;;;;;;;;17.40;90.80;;;;;;5051974;28;19916;-69
2023/11/16 12:34:58;;;;;;;;;;;17.10;92.10;;;;;;5051829;28;19909;-69
2023/11/16 12:37:24;;;;;;;;;;;17.20;91.70;;;;;;5051777;28;19962;-69
2023/11/16 12:39:50;;;;;;;;;;;17.40;91.90;;;;;;5051666;28;19964;-69
2023/11/16 12:42:17;;;;;;;;;;;17.30;91.80;;;;;;5052050;28;19909;-69
2023/11/16 12:44:44;;;;;;;;;;;17.20;91.80;;;;;;5052021;28;19908;-69
2023/11/16 12:47:12;;;;;;;;;;;17.20;91.80;;;;;;5052067;28;19908;-69
2023/11/16 12:49:38;;;;;;;;;;;17.20;91.90;;;;;;5051945;28;20000;-68
2023/11/16 12:52:05;;;;;;;;;;;17.30;91.80;;;;;;5051608;28;20371;-69
2023/11/16 12:54:31;;;;;;;;;;;17.10;91.70;;;;;;5051513;28;19909;-69
2023/11/16 12:56:58;;;;;;;;;;;17.20;91.80;;;;;;5051920;28;19913;-69
2023/11/16 12:59:24;;;;;;;;;;;17.20;91.70;;;;;;5051481;28;20008;-69
2023/11/16 13:01:50;;;;;;;;;;;17.20;91.60;;;;;;5051468;28;19962;-69
2023/11/16 13:04:16;;;;;;;;;;;17.20;91.80;;;;;;5051467;28;19920;-69
2023/11/16 13:06:41;;;;;;;;;;;17.20;91.80;;;;;;5051668;28;20010;-69
2023/11/16 13:09:07;;;;;;;;;;;17.20;91.80;;;;;;5054800;28;19912;-69
2023/11/16 13:11:32;;;;;;;;;;;17.20;91.90;;;;;;5055199;28;20367;-69
2023/11/16 13:13:58;;;;;;;;;;;17.10;91.60;;;;;;5055540;28;20381;-69
2023/11/16 13:16:26;;;;;;;;;;;18.20;92.20;;;;;;5055465;28;19909;-69
2023/11/16 13:18:53;;;;;;;;;;;17.20;91.70;;;;;;5055288;28;20008;-69
2023/11/16 13:21:19;;;;;;;;;;;17.20;91.70;;;;;;5055140;28;19915;-69
2023/11/16 13:23:49;;;;;;;;;;;17.20;91.60;;;;;;5055377;28;20050;-69
2023/11/16 13:26:15;;;;;;;;;;;17.20;89.70;;;;;;5055226;28;19987;-69
2023/11/16 13:28:41;;;;;;;;;;;17.20;91.80;;;;;;5055232;28;20392;-69
2023/11/16 13:31:06;;;;;;;;;;;17.20;91.60;;;;;;5054874;28;19948;-69
2023/11/16 13:33:32;;;;;;;;;;;17.20;91.80;;;;;;5054919;28;19963;-69
2023/11/16 13:35:57;;;;;;;;;;;17.20;91.60;;;;;;5054750;28;19952;-69
2023/11/16 13:38:23;;;;;;;;;;;17.20;91.50;;;;;;5054738;28;20008;-69
2023/11/16 13:40:49;;;;;;;;;;;17.20;91.50;;;;;;5054519;28;19920;-70
2023/11/16 13:43:15;;;;;;;;;;;17.20;91.70;;;;;;5054443;28;20394;-69
2023/11/16 13:45:42;;;;;;;;;;;17.10;91.60;;;;;;5054511;28;19908;-70
2023/11/16 13:48:08;;;;;;;;;;;17.20;91.70;;;;;;5054758;28;19908;-69
2023/11/16 13:50:34;;;;;;;;;;;17.10;91.70;;;;;;5054607;28;19909;-69
2023/11/16 13:53:00;;;;;;;;;;;17.00;91.60;;;;;;5054460;28;19909;-69
2023/11/16 13:55:26;;;;;;;;;;;17.20;91.70;;;;;;5054431;28;19959;-71
2023/11/16 13:57:53;;;;;;;;;;;17.10;91.70;;;;;;5054354;28;19912;-71
2023/11/16 14:00:23;;;;;;;;;;;17.20;91.80;;;;;;5054388;28;19971;-70
2023/11/16 14:02:49;;;;;;;;;;;17.10;91.40;;;;;;5054178;28;19923;-70
2023/11/16 14:05:16;;;;;;;;;;;17.20;91.60;;;;;;5054606;28;19909;-70
2023/11/16 14:07:42;;;;;;;;;;;17.20;91.60;;;;;;5054529;28;19916;-69
2023/11/16 14:10:09;;;;;;;;;;;17.10;91.60;;;;;;5054343;28;19908;-70
2023/11/16 14:12:37;;;;;;;;;;;17.20;91.60;;;;;;5054463;28;19994;-71
2023/11/16 14:15:04;;;;;;;;;;;17.10;91.80;;;;;;5054290;28;19916;-71
2023/11/16 14:17:29;;;;;;;;;;;17.10;91.10;;;;;;5054017;28;19909;-71